createdAt,value
2023-01-11T00:00:56.917Z,95315.03
2023-01-11T00:03:24.189Z,95319.28
2023-01-11T00:05:55.832Z,95311.22
2023-01-11T00:08:24.460Z,95306.03
2023-01-11T00:10:51.807Z,95299.25
2023-01-11T00:13:19.218Z,95298.41
2023-01-11T00:15:46.253Z,95296.78
2023-01-11T00:18:13.185Z,95295.69
2023-01-11T00:20:41.768Z,95284.38
2023-01-11T00:23:08.790Z,95291.06
2023-01-11T00:25:36.292Z,95286.84
2023-01-11T00:28:03.847Z,95281.78
2023-01-11T00:30:30.775Z,95285.47
2023-01-11T00:33:00.064Z,95288.06
2023-01-11T00:35:29.660Z,95281.25
2023-01-11T00:37:56.892Z,95285.84
2023-01-11T00:40:24.337Z,95279.63
2023-01-11T00:43:10.074Z,95270.06
2023-01-11T00:45:56.176Z,95280.56
2023-01-11T00:48:23.263Z,95278.78
2023-01-11T00:50:55.151Z,95269.53
2023-01-11T00:53:22.138Z,95267.88
2023-01-11T00:55:49.139Z,95261.19
2023-01-11T00:58:16.316Z,95265.69
2023-01-11T01:00:43.326Z,95271.56
2023-01-11T01:03:10.635Z,95268.72
2023-01-11T01:05:39.437Z,95272.81
2023-01-11T01:08:07.063Z,95268.28
2023-01-11T01:10:34.155Z,95268.84
2023-01-11T01:13:19.555Z,95270.47
2023-01-11T01:15:46.621Z,95270.09
2023-01-11T01:18:13.617Z,95272.69
2023-01-11T01:20:40.901Z,95271.88
2023-01-11T01:23:07.936Z,95274.56
2023-01-11T01:25:37.793Z,95275.66
2023-01-11T01:28:05.034Z,95274.84
2023-01-11T01:30:31.971Z,95276.75
2023-01-11T01:32:59.217Z,95276.06
2023-01-11T01:35:26.165Z,95278.22
2023-01-11T01:37:53.671Z,95276.72
2023-01-11T01:40:21.835Z,95273.34
2023-01-11T01:42:54.612Z,95265.56
2023-01-11T01:45:28.510Z,95259.69
2023-01-11T01:48:01.884Z,95255.59
2023-01-11T01:50:38.665Z,95250.13
2023-01-11T01:53:17.135Z,95253.53
2023-01-11T01:55:49.535Z,95244.09
2023-01-11T01:58:21.305Z,95248.41
2023-01-11T02:00:48.591Z,95237.91
2023-01-11T02:03:22.928Z,95228.06
2023-01-11T02:05:52.331Z,95232.56
2023-01-11T02:08:31.460Z,95237.19
2023-01-11T02:10:59.443Z,95235.41
2023-01-11T02:13:27.201Z,95236.09
2023-01-11T02:16:08.425Z,95243.59
2023-01-11T02:18:37.207Z,95232.94
2023-01-11T02:21:25.414Z,95231.03
2023-01-11T02:24:26.333Z,95232.47
2023-01-11T02:27:14.184Z,95232.16
2023-01-11T02:30:06.413Z,95227.94
2023-01-11T02:33:49.755Z,95226.88
2023-01-11T02:36:53.910Z,95227.41
2023-01-11T02:39:45.554Z,95239.03
2023-01-11T02:42:37.600Z,95234.16
2023-01-11T02:46:02.148Z,95227.63
2023-01-11T02:48:51.904Z,95223.03
2023-01-11T02:51:41.307Z,95220.56
2023-01-11T02:54:11.717Z,95214.47
2023-01-11T02:56:43.893Z,95218.78
2023-01-11T02:59:24.759Z,95206.94
2023-01-11T03:01:55.820Z,95217.28
2023-01-11T03:04:25.812Z,95201.91
2023-01-11T03:07:23.689Z,95209.66
2023-01-11T03:09:57.005Z,95196.59
2023-01-11T03:13:00.655Z,95190.63
2023-01-11T03:15:57.149Z,95190.63
2023-01-11T03:19:09.560Z,95188.03
2023-01-11T03:21:54.617Z,95193.22
2023-01-11T03:25:07.331Z,95188.19
2023-01-11T03:28:04.620Z,95193.72
2023-01-11T03:30:56.663Z,95192.34
2023-01-11T03:33:46.779Z,95187.59
2023-01-11T03:36:33.429Z,95185.25
2023-01-11T03:39:34.416Z,95180.22
2023-01-11T03:42:05.622Z,95171.50
2023-01-11T03:44:40.587Z,95167.84
2023-01-11T03:47:12.541Z,95166.38
2023-01-11T03:49:50.550Z,95161.47
2023-01-11T03:52:25.685Z,95161.78
2023-01-11T03:54:55.662Z,95165.34
2023-01-11T03:57:37.035Z,95149.84
2023-01-11T04:00:06.892Z,95143.44
2023-01-11T04:02:39.544Z,95157.59
2023-01-11T04:05:08.568Z,95152.44
2023-01-11T04:07:35.913Z,95160.19
2023-01-11T04:10:03.884Z,95155.16
2023-01-11T04:12:30.789Z,95156.38
2023-01-11T04:14:57.992Z,95147.25
2023-01-11T04:17:24.856Z,95139.72
2023-01-11T04:19:52.006Z,95153.91
2023-01-11T04:22:18.991Z,95146.69
2023-01-11T04:24:46.039Z,95139.44
2023-01-11T04:27:13.185Z,95147.59
2023-01-11T04:29:40.429Z,95142.56
2023-01-11T04:32:07.446Z,95135.19
2023-01-11T04:34:34.621Z,95131.78
2023-01-11T04:37:01.844Z,95130.16
2023-01-11T04:39:28.909Z,95135.59
2023-01-11T04:42:14.121Z,95125.63
2023-01-11T04:44:41.302Z,95126.06
2023-01-11T04:47:08.763Z,95117.75
2023-01-11T04:49:35.687Z,95116.09
2023-01-11T04:52:02.667Z,95113.22
2023-01-11T04:54:29.633Z,95113.94
2023-01-11T04:56:58.179Z,95105.78
2023-01-11T04:59:25.371Z,95106.34
2023-01-11T05:01:52.329Z,95107.84
2023-01-11T05:04:19.629Z,95102.94
2023-01-11T05:06:47.044Z,95104.31
2023-01-11T05:09:17.645Z,95101.19
2023-01-11T05:11:45.204Z,95104.44
2023-01-11T05:14:12.975Z,95105.84
2023-01-11T05:16:39.948Z,95102.56
2023-01-11T05:19:07.298Z,95104.88
2023-01-11T05:21:37.095Z,95093.81
2023-01-11T05:24:06.972Z,95099.78
2023-01-11T05:26:37.713Z,95100.72
2023-01-11T05:29:11.632Z,95095.69
2023-01-11T05:31:40.733Z,95089.72
2023-01-11T05:34:10.601Z,95086.19
2023-01-11T05:36:37.633Z,95087.13
2023-01-11T05:39:06.067Z,95089.84
2023-01-11T05:41:33.537Z,95084.69
2023-01-11T05:44:19.032Z,95082.50
2023-01-11T05:46:46.094Z,95081.09
2023-01-11T05:49:15.049Z,95077.84
2023-01-11T05:51:43.248Z,95076.34
2023-01-11T05:54:14.212Z,95082.31
2023-01-11T05:56:44.992Z,95077.16
2023-01-11T05:59:12.413Z,95071.19
2023-01-11T06:01:39.739Z,95069.94
2023-01-11T06:04:08.398Z,95075.13
2023-01-11T06:06:36.136Z,95074.28
2023-01-11T06:09:03.429Z,95074.28
2023-01-11T06:11:30.785Z,95069.13
2023-01-11T06:13:57.838Z,95068.16
2023-01-11T06:16:24.938Z,95071.31
2023-01-11T06:18:53.623Z,95073.50
2023-01-11T06:21:21.552Z,95070.25
2023-01-11T06:23:53.197Z,95070.41
2023-01-11T06:26:23.086Z,95061.16
2023-01-11T06:28:51.178Z,95054.34
2023-01-11T06:31:19.146Z,95058.59
2023-01-11T06:33:47.168Z,95049.88
2023-01-11T06:36:15.886Z,95047.81
2023-01-11T06:38:44.177Z,95048.50
2023-01-11T06:41:12.595Z,95041.66
2023-01-11T06:43:42.405Z,95038.09
2023-01-11T06:46:14.776Z,95029.09
2023-01-11T06:48:42.623Z,95028.09
2023-01-11T06:51:13.345Z,95031.78
2023-01-11T06:53:45.900Z,95039.66
2023-01-11T06:56:17.369Z,95034.72
2023-01-11T06:58:46.930Z,95040.16
2023-01-11T07:01:15.195Z,95040.28
2023-01-11T07:03:42.530Z,95039.69
2023-01-11T07:06:09.632Z,95051.94
2023-01-11T07:08:38.192Z,95052.31
2023-01-11T07:11:05.377Z,95058.84
2023-01-11T07:13:32.490Z,95064.28
2023-01-11T07:15:59.671Z,95068.06
2023-01-11T07:18:26.636Z,95072.69
2023-01-11T07:20:53.742Z,95071.41
2023-01-11T07:23:20.857Z,95071.00
2023-01-11T07:25:49.977Z,95071.38
2023-01-11T07:28:17.091Z,95065.59
2023-01-11T07:30:57.581Z,95062.56
2023-01-11T07:33:26.247Z,95056.78
2023-01-11T07:35:53.420Z,95068.22
2023-01-11T07:38:20.607Z,95062.44
2023-01-11T07:40:47.756Z,95064.44
2023-01-11T07:43:15.479Z,95067.28
2023-01-11T07:45:47.862Z,95057.78
2023-01-11T07:48:20.740Z,95066.28
2023-01-11T07:50:48.905Z,95061.16
2023-01-11T07:53:16.433Z,95063.00
2023-01-11T07:55:43.520Z,95055.16
2023-01-11T07:58:12.968Z,95056.66
2023-01-11T08:00:41.153Z,95059.16
2023-01-11T08:03:09.018Z,95057.47
2023-01-11T08:05:36.380Z,95059.28
2023-01-11T08:08:04.438Z,95054.94
2023-01-11T08:10:31.602Z,95060.34
2023-01-11T08:13:17.480Z,95050.31
2023-01-11T08:15:44.868Z,95054.72
2023-01-11T08:18:14.075Z,95051.50
2023-01-11T08:20:41.673Z,95047.47
2023-01-11T08:23:10.370Z,95047.28
2023-01-11T08:25:38.239Z,95045.88
2023-01-11T08:28:07.267Z,95041.00
2023-01-11T08:30:36.621Z,95049.97
2023-01-11T08:33:06.814Z,95035.66
2023-01-11T08:35:39.135Z,95040.91
2023-01-11T08:38:06.788Z,95042.69
2023-01-11T08:40:34.325Z,95033.13
2023-01-11T08:43:01.543Z,95038.72
2023-01-11T08:45:29.173Z,95033.22
2023-01-11T08:47:56.657Z,95026.53
2023-01-11T08:50:23.689Z,95030.31
2023-01-11T08:52:51.924Z,95034.72
2023-01-11T08:55:20.044Z,95021.66
2023-01-11T08:57:47.825Z,95028.19
2023-01-11T09:00:15.656Z,95027.03
2023-01-11T09:02:45.140Z,95028.19
2023-01-11T09:05:12.348Z,95021.50
2023-01-11T09:07:39.511Z,95019.03
2023-01-11T09:10:07.263Z,95022.47
2023-01-11T09:12:34.728Z,95028.31
2023-01-11T09:15:02.395Z,95024.84
2023-01-11T09:17:29.309Z,95029.38
2023-01-11T09:19:56.476Z,95030.91
2023-01-11T09:22:23.751Z,95035.50
2023-01-11T09:24:50.784Z,95034.19
2023-01-11T09:27:18.235Z,95031.97
2023-01-11T09:29:46.177Z,95034.59
2023-01-11T09:32:13.254Z,95029.06
2023-01-11T09:34:41.835Z,95026.28
2023-01-11T09:37:09.127Z,95025.31
2023-01-11T09:39:37.219Z,95020.72
2023-01-11T09:42:19.364Z,95014.88
2023-01-11T09:45:15.925Z,95008.56
2023-01-11T09:47:52.530Z,95000.88
2023-01-11T09:50:32.658Z,94995.38
2023-01-11T09:53:04.996Z,94993.34
2023-01-11T09:55:43.401Z,94991.72
2023-01-11T09:58:50.988Z,94986.88
2023-01-11T10:01:40.230Z,94990.47
2023-01-11T10:04:47.764Z,94974.31
2023-01-11T10:07:49.666Z,94966.84
2023-01-11T10:18:22.627Z,94954.75
2023-01-11T10:18:33.349Z,94952.38
2023-01-11T10:20:37.879Z,94940.28
2023-01-11T10:23:47.531Z,94935.03
2023-01-11T10:26:36.378Z,94933.06
2023-01-11T10:30:07.195Z,94937.38
2023-01-11T10:32:45.870Z,94930.94
2023-01-11T10:36:06.044Z,94922.19
2023-01-11T10:38:58.915Z,94926.47
2023-01-11T10:41:38.632Z,94922.66
2023-01-11T10:44:19.259Z,94925.78
2023-01-11T10:46:53.222Z,94923.47
2023-01-11T10:49:44.907Z,94916.72
2023-01-11T10:52:44.451Z,94924.13
2023-01-11T10:55:25.921Z,94930.38
2023-01-11T10:58:07.122Z,94926.88
2023-01-11T11:00:58.718Z,94934.66
2023-01-11T11:04:00.663Z,94926.47
2023-01-11T11:06:38.164Z,94921.88
2023-01-11T11:09:42.653Z,94918.88
2023-01-11T11:12:26.128Z,94903.97
2023-01-11T11:15:29.511Z,94908.63
2023-01-11T11:17:56.997Z,94907.47
2023-01-11T11:20:29.845Z,94903.41
2023-01-11T11:22:57.635Z,94895.31
2023-01-11T11:25:38.301Z,94901.00
2023-01-11T11:28:32.582Z,94891.53
2023-01-11T11:31:05.726Z,94886.88
2023-01-11T11:33:40.347Z,94887.09
2023-01-11T11:36:11.090Z,94879.81
2023-01-11T11:38:41.462Z,94876.56
2023-01-11T11:41:17.186Z,94869.50
2023-01-11T11:43:47.625Z,94862.25
2023-01-11T11:46:18.837Z,94857.56
2023-01-11T11:49:15.949Z,94856.56
2023-01-11T11:51:46.120Z,94855.13
2023-01-11T11:54:37.633Z,94855.53
2023-01-11T11:57:35.863Z,94854.53
2023-01-11T12:00:09.293Z,94851.72
2023-01-11T12:02:50.362Z,94848.88
2023-01-11T12:05:17.668Z,94846.66
2023-01-11T12:07:55.166Z,94845.22
2023-01-11T12:10:28.653Z,94838.34
2023-01-11T12:13:02.149Z,94833.91
2023-01-11T12:15:34.223Z,94834.34
2023-01-11T12:18:37.674Z,94822.19
2023-01-11T12:21:25.005Z,94822.81
2023-01-11T12:24:23.008Z,94819.59
2023-01-11T12:27:00.950Z,94824.03
2023-01-11T12:30:01.831Z,94822.81
2023-01-11T12:32:59.737Z,94814.94
2023-01-11T12:35:40.805Z,94814.50
2023-01-11T12:38:39.624Z,94813.91
2023-01-11T12:41:51.546Z,94811.47
2023-01-11T12:44:49.016Z,94813.69
2023-01-11T12:47:40.695Z,94807.63
2023-01-11T12:50:25.020Z,94805.59
2023-01-11T12:53:27.231Z,94799.31
2023-01-11T12:56:28.388Z,94801.34
2023-01-11T12:59:04.940Z,94800.16
2023-01-11T13:01:45.955Z,94793.28
2023-01-11T13:04:33.509Z,94783.97
2023-01-11T13:07:30.457Z,94780.53
2023-01-11T13:10:09.613Z,94778.75
2023-01-11T13:12:50.666Z,94771.25
2023-01-11T13:15:46.632Z,94763.16
2023-01-11T13:19:01.450Z,94757.91
2023-01-11T13:21:44.643Z,94758.53
2023-01-11T13:24:18.598Z,94750.22
2023-01-11T13:26:50.491Z,94754.47
2023-01-11T13:29:29.464Z,94747.19
2023-01-11T13:32:01.303Z,94744.16
2023-01-11T13:34:38.813Z,94733.66
2023-01-11T13:37:17.906Z,94734.88
2023-01-11T13:40:13.178Z,94731.25
2023-01-11T13:42:47.588Z,94734.66
2023-01-11T13:45:21.855Z,94726.38
2023-01-11T13:47:57.100Z,94721.75
2023-01-11T13:50:37.810Z,94722.34
2023-01-11T13:57:34.273Z,94721.13
2023-01-11T14:00:19.520Z,94714.66
2023-01-11T14:02:59.333Z,94716.06
2023-01-11T14:05:35.623Z,94729.38
2023-01-11T14:08:25.712Z,94731.00
2023-01-11T14:11:42.000Z,94733.22
2023-01-11T14:14:46.430Z,94742.28
2023-01-11T14:18:05.638Z,94740.25
2023-01-11T14:20:40.848Z,94746.09
2023-01-11T14:23:20.569Z,94741.25
2023-01-11T14:26:21.603Z,94746.09
2023-01-11T14:28:59.389Z,94735.97
2023-01-11T14:44:29.584Z,94738.78
2023-01-11T14:47:18.084Z,94742.16
2023-01-11T14:50:06.008Z,94740.94
2023-01-11T14:52:40.701Z,94738.91
2023-01-11T14:55:30.633Z,94743.72
2023-01-11T14:58:03.233Z,94749.75
2023-01-11T15:00:30.030Z,94744.09
2023-01-11T15:02:59.595Z,94749.31
2023-01-11T15:05:38.300Z,94744.84
2023-01-11T15:08:14.260Z,94750.50
2023-01-11T15:11:01.753Z,94752.06
2023-01-11T15:13:44.624Z,94754.66
2023-01-11T15:16:44.812Z,94758.00
2023-01-11T15:19:33.857Z,94755.13
2023-01-11T15:22:04.542Z,94757.88
2023-01-11T15:24:39.851Z,94760.44
2023-01-11T15:27:07.146Z,94766.41
2023-01-11T15:29:46.044Z,94766.56
2023-01-11T15:32:34.869Z,94767.31
2023-01-11T15:35:26.799Z,94767.88
2023-01-11T15:38:17.471Z,94767.44
2023-01-11T15:40:50.173Z,94763.56
2023-01-11T15:43:48.565Z,94775.84
2023-01-11T15:46:55.194Z,94769.19
2023-01-11T15:49:34.159Z,94777.47
2023-01-11T15:52:31.375Z,94758.75
2023-01-11T15:55:41.652Z,94759.38
2023-01-11T15:58:31.803Z,94762.63
2023-01-11T16:01:20.200Z,94766.69
2023-01-11T16:04:05.395Z,94764.50
2023-01-11T16:06:53.769Z,94766.72
2023-01-11T16:09:43.412Z,94763.13
2023-01-11T16:12:19.350Z,94756.88
2023-01-11T16:15:38.486Z,94763.13
2023-01-11T16:18:20.467Z,94762.69
2023-01-11T16:21:21.649Z,94760.91
2023-01-11T16:23:49.357Z,94762.53
2023-01-11T16:26:20.316Z,94763.50
2023-01-11T16:28:56.855Z,94755.81
2023-01-11T16:31:25.486Z,94755.81
2023-01-11T16:33:53.335Z,94760.25
2023-01-11T16:36:23.415Z,94761.06
2023-01-11T16:39:11.126Z,94758.44
2023-01-11T16:41:46.911Z,94753.03
2023-01-11T16:44:41.805Z,94751.03
2023-01-11T16:47:16.898Z,94762.56
2023-01-11T16:49:49.996Z,94768.03
2023-01-11T16:52:31.256Z,94771.91
2023-01-11T16:55:02.058Z,94770.53
2023-01-11T16:57:36.293Z,94769.97
2023-01-11T17:00:32.432Z,94771.41
2023-01-11T17:03:24.165Z,94766.59
2023-01-11T17:06:03.040Z,94762.59
2023-01-11T17:08:34.829Z,94762.84
2023-01-11T17:11:42.294Z,94763.06
2023-01-11T17:14:30.841Z,94774.00
2023-01-11T17:17:02.492Z,94777.03
2023-01-11T17:19:43.129Z,94779.06
2023-01-11T17:22:29.889Z,94783.94
2023-01-11T17:25:14.548Z,94790.59
2023-01-11T17:27:50.890Z,94794.66
2023-01-11T17:30:23.010Z,94797.69
2023-01-11T17:32:53.728Z,94788.63
2023-01-11T17:35:30.808Z,94788.63
2023-01-11T17:38:08.103Z,94794.50
2023-01-11T17:40:38.967Z,94792.88
2023-01-11T17:43:28.826Z,94796.31
2023-01-11T17:45:58.205Z,94792.69
2023-01-11T17:48:27.400Z,94786.44
2023-01-11T17:51:01.016Z,94796.13
2023-01-11T17:53:36.240Z,94795.31
2023-01-11T17:56:33.045Z,94796.31
2023-01-11T17:59:11.899Z,94799.13
2023-01-11T18:01:39.033Z,94805.97
2023-01-11T18:04:05.972Z,94803.56
2023-01-11T18:06:39.980Z,94802.72
2023-01-11T18:09:28.489Z,94810.78
2023-01-11T18:12:25.993Z,94808.56
2023-01-11T18:15:02.957Z,94809.75
2023-01-11T18:17:32.800Z,94819.63
2023-01-11T18:20:00.914Z,94822.44
2023-01-11T18:22:37.407Z,94824.44
2023-01-11T18:25:22.399Z,94830.03
2023-01-11T18:27:50.176Z,94823.19
2023-01-11T18:30:32.067Z,94827.59
2023-01-11T18:33:04.465Z,94825.63
2023-01-11T18:35:31.385Z,94825.63
2023-01-11T18:37:58.247Z,94823.19
2023-01-11T18:40:25.213Z,94827.41
2023-01-11T18:42:53.715Z,94831.47
2023-01-11T18:45:21.841Z,94834.06
2023-01-11T18:47:48.716Z,94827.84
2023-01-11T18:50:18.146Z,94829.03
2023-01-11T18:52:46.366Z,94832.84
2023-01-11T18:55:14.637Z,94838.66
2023-01-11T18:57:42.504Z,94846.06
2023-01-11T19:00:14.419Z,94837.78
2023-01-11T19:02:43.749Z,94839.16
2023-01-11T19:05:14.803Z,94842.34
2023-01-11T19:07:42.104Z,94843.91
2023-01-11T19:10:13.699Z,94856.81
2023-01-11T19:12:41.222Z,94857.56
2023-01-11T19:15:08.834Z,94856.94
2023-01-11T19:17:35.746Z,94861.38
2023-01-11T19:20:03.183Z,94864.16
2023-01-11T19:22:30.084Z,94866.97
2023-01-11T19:24:57.033Z,94859.13
2023-01-11T19:27:23.947Z,94860.75
2023-01-11T19:29:52.611Z,94872.66
2023-01-11T19:32:24.958Z,94867.59
2023-01-11T19:34:53.221Z,94874.63
2023-01-11T19:37:20.706Z,94870.41
2023-01-11T19:39:47.679Z,94887.13
2023-01-11T19:42:14.671Z,94884.13
2023-01-11T19:44:41.628Z,94884.94
2023-01-11T19:47:13.384Z,94890.19
2023-01-11T19:49:41.776Z,94895.56
2023-01-11T19:52:14.472Z,94898.84
2023-01-11T19:54:43.361Z,94904.06
2023-01-11T19:57:15.281Z,94905.88
2023-01-11T19:59:42.531Z,94907.47
2023-01-11T20:02:12.923Z,94909.31
2023-01-11T20:04:40.387Z,94916.16
2023-01-11T20:07:09.159Z,94926.66
2023-01-11T20:09:39.297Z,94925.81
2023-01-11T20:12:08.249Z,94924.03
2023-01-11T20:14:36.409Z,94927.63
2023-01-11T20:17:03.446Z,94925.41
2023-01-11T20:19:30.557Z,94923.59
2023-01-11T20:21:57.612Z,94926.00
2023-01-11T20:24:33.556Z,94920.56
2023-01-11T20:27:03.461Z,94930.25
2023-01-11T20:29:30.630Z,94935.69
2023-01-11T20:32:13.395Z,94934.69
2023-01-11T20:34:44.795Z,94929.63
2023-01-11T20:37:11.726Z,94939.09
2023-01-11T20:39:38.646Z,94935.69
2023-01-11T20:42:05.564Z,94944.34
2023-01-11T20:44:32.458Z,94942.91
2023-01-11T20:47:00.094Z,94956.97
2023-01-11T20:49:29.231Z,94951.75
2023-01-11T20:51:56.602Z,94955.00
2023-01-11T20:54:23.698Z,94962.22
2023-01-11T20:56:50.796Z,94958.59
2023-01-11T20:59:19.957Z,94964.38
2023-01-11T21:01:49.295Z,94961.78
2023-01-11T21:04:17.773Z,94961.78
2023-01-11T21:06:50.366Z,94957.38
2023-01-11T21:09:18.178Z,94952.13
2023-01-11T21:11:52.337Z,94965.22
2023-01-11T21:14:20.083Z,94960.97
2023-01-11T21:16:47.000Z,94962.75
2023-01-11T21:19:15.582Z,94968.00
2023-01-11T21:21:42.609Z,94965.38
2023-01-11T21:24:13.105Z,94963.94
2023-01-11T21:26:41.957Z,94971.81
2023-01-11T21:29:10.455Z,94961.53
2023-01-11T21:31:38.243Z,94971.34
2023-01-11T21:34:05.603Z,94966.50
2023-01-11T21:36:32.922Z,94970.75
2023-01-11T21:39:00.608Z,94968.13
2023-01-11T21:41:49.221Z,94978.41
2023-01-11T21:44:18.004Z,94974.16
2023-01-11T21:46:45.780Z,94970.91
2023-01-11T21:49:13.959Z,94985.00
2023-01-11T21:51:42.195Z,94990.41
2023-01-11T21:54:13.510Z,94996.03
2023-01-11T21:56:41.841Z,94990.78
2023-01-11T21:59:09.234Z,94991.41
2023-01-11T22:01:38.023Z,95005.31
2023-01-11T22:04:14.266Z,95008.91
2023-01-11T22:06:47.184Z,95006.66
2023-01-11T22:09:14.173Z,95000.28
2023-01-11T22:11:41.047Z,95004.47
2023-01-11T22:14:08.784Z,95006.94
2023-01-11T22:16:36.987Z,95015.78
2023-01-11T22:19:07.257Z,95009.72
2023-01-11T22:21:35.557Z,95007.75
2023-01-11T22:24:03.012Z,95016.59
2023-01-11T22:26:33.281Z,95015.59
2023-01-11T22:29:12.624Z,95023.44
2023-01-11T22:31:42.165Z,95019.38
2023-01-11T22:34:10.315Z,95010.75
2023-01-11T22:36:37.885Z,95014.94
2023-01-11T22:39:04.917Z,95012.97
2023-01-11T22:41:32.223Z,95021.03
2023-01-11T22:43:59.152Z,95025.06
2023-01-11T22:46:27.392Z,95023.63
2023-01-11T22:48:54.455Z,95018.41
2023-01-11T22:51:24.876Z,95018.22
2023-01-11T22:53:53.190Z,95027.88
2023-01-11T22:56:24.796Z,95019.84
2023-01-11T22:58:54.017Z,95016.97
2023-01-11T23:01:24.914Z,95029.22
2023-01-11T23:03:53.383Z,95024.19
2023-01-11T23:06:30.450Z,95027.16
2023-01-11T23:08:58.675Z,95023.72
2023-01-11T23:11:48.163Z,95021.28
2023-01-11T23:14:18.425Z,95017.03
2023-01-11T23:16:47.290Z,95023.72
2023-01-11T23:19:18.109Z,95020.91
2023-01-11T23:21:46.775Z,95019.75
2023-01-11T23:24:16.003Z,95019.13
2023-01-11T23:26:43.488Z,95024.56
2023-01-11T23:29:10.532Z,95022.91
2023-01-11T23:31:37.672Z,95010.38
2023-01-11T23:34:06.949Z,95011.91
2023-01-11T23:36:38.075Z,95015.41
2023-01-11T23:39:07.776Z,95018.56
2023-01-11T23:41:54.128Z,95030.41
2023-01-11T23:44:22.331Z,95029.28
2023-01-11T23:47:08.958Z,95029.81
2023-01-11T23:49:36.143Z,95025.94
2023-01-11T23:52:03.314Z,95023.88
2023-01-11T23:54:32.651Z,95025.38
2023-01-11T23:57:01.224Z,95029.34
2023-01-11T23:59:28.304Z,95019.06
